Latest Weather Observations for Roseworthy

IDS60901

Issued at 5:21 pm CDT Monday 18 February 2019 (issued every 10 minutes, with the page automatically refreshed every 10 minutes)

About weather observations | Map of Adelaide area stations | Latest observations for Adelaide area | Other Formats
Station Details ID: 023122 Name: ROSEWORTHY AWS Lat: -34.51 Lon: 138.68 Height: 65.0 m
Data from the previous 72 hours. | See also: Recent months at Roseworthy
Date/Time
CDT
Temp
°C
App
Temp
°C
Dew
Point
°C
Rel
Hum
%
Delta-T
°C
Wind Press
QNH
hPa
Press
MSL
hPa
Rain since
9am
mm
Dir  Spd
km/h
Gust
km/h
Spd
kts
Gust
kts
18/05:00pm 22.9 16.6 11.0 47 6.6 SW 35 46 19 25 1010.3 1010.1 0.0
18/04:30pm 22.9 16.8 11.6 49 6.4 SW 35 46 19 25 1010.2 1010.0 0.0
18/04:00pm 23.6 17.8 11.6 47 6.8 SW 33 48 18 26 1010.2 1010.0 0.0
18/03:30pm 23.3 18.0 11.4 47 6.7 SW 30 41 16 22 1010.2 1010.0 0.0
18/03:00pm 22.6 17.4 11.7 50 6.1 SW 30 39 16 21 1010.2 1010.0 0.0
18/02:30pm 22.9 17.7 11.6 49 6.4 SW 30 44 16 24 1010.3 1010.1 0.0
18/02:06pm 23.6 18.1 12.0 48 6.6 SW 32 65 17 35 1010.2 1010.0 0.0
18/02:00pm 22.9 17.2 11.9 50 6.2 SW 33 50 18 27 1010.3 1010.1 0.0
18/01:51pm 23.7 18.2 12.0 48 6.7 SW 32 50 17 27 1010.2 1010.0 0.0
18/01:30pm 23.5 18.2 12.5 50 6.3 SW 32 43 17 23 1010.1 1009.9 0.0
18/01:00pm 22.5 17.5 12.2 52 5.8 SW 30 39 16 21 1010.1 1009.9 0.0
18/12:30pm 21.8 16.4 12.1 54 5.5 SW 32 43 17 23 1010.3 1010.1 0.0
18/12:00pm 23.0 18.1 12.6 52 6.0 SW 30 41 16 22 1010.1 1009.9 0.0
18/11:30am 24.2 19.9 13.1 50 6.5 SW 28 43 15 23 1009.8 1009.6 0.0
18/11:00am 22.6 18.6 13.1 55 5.5 SW 26 35 14 19 1009.9 1009.7 0.0
18/10:30am 23.3 20.4 14.0 56 5.5 SW 22 32 12 17 1009.8 1009.6 0.0
18/10:00am 21.8 19.2 13.9 61 4.6 SW 20 26 11 14 1009.5 1009.3 0.0
18/09:30am 21.7 21.3 14.1 62 4.4 WSW 9 15 5 8 1009.1 1008.8 0.0
18/09:00am 21.5 21.0 13.7 61 4.5 SSE 9 13 5 7 1009.0 1008.7 0.0
18/08:30am 21.0 19.7 13.7 63 4.2 SSE 13 15 7 8 1008.8 1008.5 0.0
18/08:00am 20.8 19.1 13.7 64 4.1 S 15 20 8 11 1008.3 1008.0 0.0
18/07:30am 20.3 19.1 14.0 67 3.7 SE 13 17 7 9 1007.7 1007.4 0.0
18/07:00am 20.3 18.2 13.7 66 3.8 SSE 17 24 9 13 1007.4 1007.1 0.0
18/06:30am 20.7 18.9 13.4 63 4.2 SE 15 20 8 11 1006.5 1006.2 0.0
18/06:00am 20.9 21.8 15.0 69 3.5 NNW 4 9 2 5 1005.7 1005.4 0.0
18/05:30am 21.1 22.4 15.2 69 3.5 SW 2 6 1 3 1005.4 1005.1 0.0
18/05:00am 21.5 20.9 15.6 69 3.5 WSW 13 19 7 10 1005.3 1005.0 0.0
18/04:30am 22.0 21.6 16.1 69 3.6 W 13 17 7 9 1005.3 1005.0 0.0
18/04:00am 22.1 21.7 14.2 61 4.6 WNW 9 17 5 9 1005.1 1004.8 0.0
18/03:30am 22.4 21.7 11.5 50 6.1 WSW 6 19 3 10 1005.6 1005.3 0.0
18/03:00am 23.3 22.8 12.6 51 6.2 WSW 7 11 4 6 1005.0 1004.7 0.0
18/02:30am 24.3 24.0 12.6 48 6.8 WSW 6 11 3 6 1005.3 1005.0 0.0
18/02:00am 25.4 21.5 3.4 24 10.8 ENE 13 20 7 11 1005.7 1005.4 0.0
18/01:30am 25.7 20.4 3.0 23 11.2 NE 20 26 11 14 1005.2 1004.9 0.0
18/01:00am 25.9 21.4 1.9 21 11.5 NE 15 19 8 10 1006.1 1005.8 0.0
18/12:30am 25.3 19.4 1.4 21 11.4 NE 22 24 12 13 1005.7 1005.4 0.0
18/12:00am 24.2 20.7 1.2 22 10.8 E 9 11 5 6 1006.4 1006.1 0.0
 
Date/Time
CDT
Temp
°C
App
Temp
°C
Dew
Point
°C
Rel
Hum
%
Delta-T
°C
Wind Press
QNH
hPa
Press
MSL
hPa
Rain since
9am
mm
Dir  Spd
km/h
Gust
km/h
Spd
kts
Gust
kts
17/11:30pm 22.7 19.1 0.5 23 10.2 ENE 9 13 5 7 1006.6 1006.3 0.0
17/11:00pm 23.7 19.7 0.7 22 10.6 E 11 15 6 8 1006.8 1006.5 0.0
17/10:30pm 22.9 20.8 -0.6 21 10.6 CALM 0 0 0 0 1007.0 1006.7 0.0
17/10:00pm 24.0 22.0 -0.3 20 11.1 CALM 0 0 0 0 1007.1 1006.8 0.0
17/09:30pm 25.5 23.4 -0.5 18 12.0 CALM 0 0 0 0 1006.9 1006.6 0.0
17/09:00pm 26.6 24.6 -0.4 17 12.6 CALM 0 0 0 0 1006.7 1006.4 0.0
17/08:30pm 28.7 25.5 -0.5 15 13.8 SE 6 7 3 4 1006.5 1006.2 0.0
17/08:00pm 31.4 27.8 0.7 14 15.0 SSE 9 13 5 7 1006.4 1006.1 0.0
17/07:30pm 32.3 29.0 0.4 13 15.7 SSE 7 11 4 6 1006.6 1006.3 0.0
17/07:00pm 33.0 29.1 0.9 13 15.9 S 11 13 6 7 1006.6 1006.3 0.0
17/06:30pm 34.0 29.1 -0.6 11 16.9 SW 15 20 8 11 1006.7 1006.4 0.0
17/06:00pm 34.1 29.5 1.8 13 16.4 SW 15 20 8 11 1006.7 1006.4 0.0
17/05:30pm 34.9 30.1 0.1 11 17.3 W 15 20 8 11 1006.6 1006.3 0.0
17/05:00pm 36.8 31.0 -1.2 9 18.7 WSW 19 28 10 15 1006.6 1006.3 0.0
17/04:30pm 36.9 32.1 -2.7 8 19.1 WSW 13 20 7 11 1006.9 1006.6 0.0
17/04:00pm 36.6 31.4 -3.0 8 18.9 N 15 22 8 12 1007.3 1007.0 0.0
17/03:30pm 36.4 31.2 -3.1 8 18.8 WNW 15 24 8 13 1007.7 1007.4 0.0
17/03:00pm 36.2 32.1 -3.3 8 18.7 WNW 9 22 5 12 1008.1 1007.8 0.0
17/02:30pm 35.5 31.5 -2.2 9 18.1 NNW 9 15 5 8 1008.8 1008.5 0.0
17/02:00pm 34.5 29.8 -1.5 10 17.3 N 13 26 7 14 1009.3 1009.1 0.0
17/01:30pm 34.2 30.4 -0.4 11 17.0 NW 9 20 5 11 1009.9 1009.7 0.0
17/01:00pm 32.9 29.0 0.9 13 15.9 NNW 11 17 6 9 1010.3 1010.1 0.0
17/12:30pm 32.0 28.9 1.2 14 15.3 NNW 7 13 4 7 1010.9 1010.7 0.0
17/12:00pm 30.8 27.7 1.2 15 14.6 S 7 13 4 7 1011.4 1011.2 0.0
17/11:30am 30.0 26.3 2.3 17 13.8 SSE 11 13 6 7 1011.9 1011.7 0.0
17/11:00am 27.7 23.9 2.0 19 12.5 SSE 11 15 6 8 1012.4 1012.2 0.0
17/10:30am 27.3 22.9 0.1 17 12.8 S 13 17 7 9 1012.5 1012.3 0.0
17/10:00am 28.7 25.1 0.4 16 13.5 ENE 9 15 5 8 1012.5 1012.3 0.0
17/09:30am 27.9 23.3 -1.1 15 13.4 ENE 13 19 7 10 1012.2 1012.0 0.0
17/09:00am 26.9 22.1 -2.8 14 13.2 E 13 17 7 9 1012.3 1012.1 0.0
17/08:30am 24.6 18.7 -2.0 17 11.8 ENE 19 26 10 14 1012.2 1012.0 0.0
17/08:00am 22.5 15.9 -3.0 18 10.9 ENE 22 28 12 15 1012.1 1011.9 0.0
17/07:30am 18.6 14.7 -1.3 26 8.5 NE 9 17 5 9 1011.9 1011.7 0.0
17/07:00am 17.9 12.1 -0.4 29 7.9 NE 20 24 11 13 1011.8 1011.6 0.0
17/06:30am 14.4 10.0 0.3 38 6.0 NE 13 15 7 8 1011.9 1011.7 0.0
17/06:00am 15.8 12.0 1.5 38 6.3 NE 11 13 6 7 1012.1 1011.9 0.0
17/05:30am 16.1 11.4 2.9 41 6.0 NE 17 20 9 11 1011.6 1011.4 0.0
17/05:00am 15.3 10.8 2.1 41 5.9 NE 15 17 8 9 1011.6 1011.4 0.0
17/04:30am 16.4 11.0 2.4 39 6.3 NE 20 22 11 12 1011.6 1011.4 0.0
17/04:00am 13.1 9.0 2.4 48 4.7 ENE 13 15 7 8 1012.1 1011.9 0.0
17/03:30am 13.2 9.5 2.4 48 4.7 NE 11 13 6 7 1012.6 1012.4 0.0
17/03:00am 14.1 10.5 2.7 46 5.1 NE 11 13 6 7 1012.5 1012.3 0.0
17/02:30am 14.3 10.6 2.5 45 5.2 NE 11 15 6 8 1012.8 1012.6 0.0
17/02:00am 15.6 11.8 4.0 46 5.4 NE 13 15 7 8 1012.9 1012.7 0.0
17/01:30am 15.6 12.0 3.1 43 5.7 NE 11 11 6 6 1013.5 1013.2 0.0
17/01:00am 17.8 16.8 5.4 44 6.0 CALM 0 0 0 0 1013.8 1013.5 0.0
17/12:30am 16.9 14.3 4.3 43 5.9 ENE 7 9 4 5 1014.1 1013.8 0.0
17/12:00am 17.1 14.1 4.1 42 6.1 ENE 9 11 5 6 1014.4 1014.1 0.0
 
Date/Time
CDT
Temp
°C
App
Temp
°C
Dew
Point
°C
Rel
Hum
%
Delta-T
°C
Wind Press
QNH
hPa
Press
MSL
hPa
Rain since
9am
mm
Dir  Spd
km/h
Gust
km/h
Spd
kts
Gust
kts
16/11:30pm 18.5 16.4 6.0 44 6.2 ENE 6 7 3 4 1014.6 1014.3 0.0
16/11:00pm 18.5 15.6 4.7 40 6.6 ENE 9 11 5 6 1014.8 1014.5 0.0
16/10:30pm 17.4 14.1 2.2 36 6.9 E 9 13 5 7 1015.0 1014.7 0.0
16/10:00pm 17.2 14.2 0.8 33 7.2 ESE 6 7 3 4 1015.0 1014.7 0.0
16/09:30pm 21.3 19.4 4.8 34 8.1 S 4 7 2 4 1014.9 1014.6 0.0
16/09:00pm 21.7 18.9 3.4 30 8.8 SW 7 11 4 6 1014.7 1014.4 0.0
16/08:30pm 23.7 20.3 4.1 28 9.7 SW 11 15 6 8 1014.6 1014.3 0.0
16/08:00pm 25.4 21.3 4.5 26 10.5 SSW 15 19 8 10 1014.4 1014.1 0.0
16/07:30pm 27.1 21.4 2.9 21 11.9 SW 22 28 12 15 1014.1 1013.8 0.0
16/07:00pm 28.4 23.0 1.0 17 13.2 SW 19 24 10 13 1013.8 1013.5 0.0
16/06:30pm 29.6 23.1 -2.8 12 14.7 SW 22 28 12 15 1013.8 1013.5 0.0
16/06:00pm 30.7 24.5 -3.1 11 15.4 SW 20 26 11 14 1013.8 1013.5 0.0
16/05:30pm 31.7 25.5 -5.0 9 16.3 SW 19 24 10 13 1013.8 1013.5 0.0
16/05:00pm 31.8 26.1 -3.5 10 16.1 WSW 17 24 9 13 1013.9 1013.6 0.0
16/04:30pm 31.3 25.6 -3.9 10 15.9 SW 17 24 9 13 1014.1 1013.8 0.0
16/04:00pm 31.2 25.5 -0.5 13 15.2 SW 19 30 10 16 1014.3 1014.0 0.0
16/03:30pm 30.9 25.0 -0.7 13 15.0 SW 20 28 11 15 1014.6 1014.3 0.0
16/03:00pm 31.2 25.3 1.5 15 14.7 SW 22 39 12 21 1015.0 1014.7 0.0
16/02:30pm 32.0 27.0 4.7 18 14.3 SW 20 30 11 16 1015.3 1015.0 0.0
16/02:00pm 32.1 28.3 5.6 19 14.1 SW 15 28 8 15 1015.5 1015.2 0.0
16/01:30pm 31.2 27.5 2.4 16 14.5 - 11 24 6 13 1015.9 1015.6 0.0
16/01:00pm 30.9 28.4 4.6 19 13.7 SE 7 13 4 7 1016.3 1016.0 0.0
16/12:30pm 31.0 27.3 4.7 19 13.7 WSW 13 19 7 10 1016.9 1016.6 0.0
16/12:00pm 30.0 27.6 5.3 21 12.9 SW 7 17 4 9 1017.4 1017.1 0.0
16/11:30am 28.5 26.3 5.4 23 12.0 SSE 6 15 3 8 1017.8 1017.5 0.0
16/11:00am 27.3 24.1 5.0 24 11.4 NE 11 17 6 9 1018.1 1017.8 0.0
16/10:30am 27.2 24.5 5.5 25 11.2 NE 9 15 5 8 1018.4 1018.1 0.0
16/10:00am 25.6 23.1 4.7 26 10.6 ENE 7 11 4 6 1018.4 1018.1 0.0
16/09:30am 24.2 21.9 5.5 30 9.5 E 7 11 4 6 1018.5 1018.2 0.0
16/09:00am 22.7 20.0 5.6 33 8.6 ESE 9 11 5 6 1018.7 1018.4 0.0
16/08:30am 21.1 18.2 6.6 39 7.4 ENE 11 13 6 7 1018.7 1018.4 0.0
16/08:00am 18.6 15.8 6.8 46 5.9 ENE 11 13 6 7 1018.5 1018.2 0.0
16/07:30am 16.2 13.4 6.9 54 4.6 ENE 11 15 6 8 1018.1 1017.8 0.0
16/07:00am 14.5 11.9 6.3 58 4.0 ENE 9 13 5 7 1018.0 1017.7 0.0
16/06:30am 14.9 11.8 7.2 60 3.8 ENE 13 15 7 8 1017.6 1017.3 0.0
16/06:00am 13.9 11.6 7.4 65 3.2 ENE 9 13 5 7 1017.4 1017.1 0.0
16/05:30am 14.6 11.5 7.2 61 3.6 E 13 15 7 8 1017.3 1017.0 0.0
16/05:00am 15.6 12.1 7.1 57 4.2 E 15 19 8 10 1017.6 1017.3 0.0
16/04:30am 16.9 13.5 7.8 55 4.6 E 15 20 8 11 1017.9 1017.6 0.0
16/04:00am 13.5 11.2 7.5 67 2.9 ENE 9 11 5 6 1018.2 1017.9 0.0
16/03:30am 13.0 10.4 7.7 70 2.6 E 11 13 6 7 1018.4 1018.1 0.0
16/03:00am 12.6 10.3 7.5 71 2.5 ENE 9 13 5 7 1018.6 1018.3 0.0
16/02:30am 12.9 10.7 7.8 71 2.5 NE 9 13 5 7 1018.8 1018.5 0.0
16/02:00am 12.7 10.4 7.6 71 2.5 NE 9 11 5 6 1018.9 1018.6 0.0
16/01:30am 13.5 11.6 7.5 67 2.9 E 7 9 4 5 1019.2 1018.9 0.0
16/01:00am 16.2 14.3 8.9 62 3.8 ESE 9 11 5 6 1019.4 1019.1 0.0
16/12:30am 18.3 16.0 10.4 60 4.2 ESE 13 17 7 9 1019.5 1019.2 0.0
16/12:00am 18.7 16.4 10.5 59 4.4 ESE 13 17 7 9 1019.7 1019.4 0.0
 
Date/Time
CDT
Temp
°C
App
Temp
°C
Dew
Point
°C
Rel
Hum
%
Delta-T
°C
Wind Press
QNH
hPa
Press
MSL
hPa
Rain since
9am
mm
Dir  Spd
km/h
Gust
km/h
Spd
kts
Gust
kts
15/11:30pm 19.4 16.8 10.7 57 4.7 ESE 15 20 8 11 1019.7 1019.4 0.0
15/11:00pm 19.1 16.8 10.4 57 4.7 ESE 13 19 7 10 1020.0 1019.7 0.0
15/10:30pm 20.4 17.6 11.3 56 5.0 ESE 17 20 9 11 1020.0 1019.7 0.0
15/10:00pm 21.2 18.7 11.2 53 5.5 ESE 15 20 8 11 1020.0 1019.7 0.0
15/09:30pm 22.1 19.9 9.3 44 6.9 SE 11 15 6 8 1019.7 1019.4 0.0
15/09:00pm 22.7 19.9 6.9 36 8.1 S 11 13 6 7 1019.1 1018.8 0.0
15/08:30pm 23.6 19.8 6.0 32 9.0 SSW 15 20 8 11 1018.6 1018.3 0.0
15/08:00pm 25.2 20.4 5.4 28 10.1 SSW 20 26 11 14 1018.4 1018.1 0.0
15/07:30pm 26.4 21.6 5.4 26 10.8 SW 20 26 11 14 1018.1 1017.8 0.0
15/07:00pm 27.4 22.1 5.1 24 11.5 SW 22 30 12 16 1018.0 1017.7 0.0
15/06:30pm 28.7 23.8 4.9 22 12.3 SW 20 28 11 15 1017.9 1017.6 0.0
15/06:00pm 28.5 23.5 4.7 22 12.2 SSW 20 30 11 16 1018.1 1017.8 0.0
15/05:30pm 29.0 23.0 5.1 22 12.4 SW 26 33 14 18 1018.2 1017.9 0.0

Latest Capital City Observations: Canberra | Sydney | Melbourne | Brisbane | Adelaide | Perth | Hobart | Darwin

Other formats

Comma delimited format used in spreadsheet applications
http://www.bom.gov.au/fwo/IDS60901/IDS60901.95671.axf

JavaScript Object Notation format (JSON) in row-major order
http://www.bom.gov.au/fwo/IDS60901/IDS60901.95671.json

Data quality

Most of these data are generated automatically and are frequently updated. Quality checks on data are not normally performed. It is possible for incorrect values to appear. Refer to information at About Latest Weather Observations and please check the disclaimer before using these data.